createdAt,value
2019-03-29T00:01:42.838Z,12.18
2019-03-29T00:04:14.581Z,12.17
2019-03-29T00:06:46.382Z,12.14
2019-03-29T00:09:19.391Z,12.13
2019-03-29T00:11:51.105Z,12.11
2019-03-29T00:14:23.564Z,12.11
2019-03-29T00:16:55.567Z,12.10
2019-03-29T00:19:27.903Z,12.11
2019-03-29T00:21:59.786Z,12.11
2019-03-29T00:24:31.607Z,12.12
2019-03-29T00:27:03.359Z,12.11
2019-03-29T00:29:35.096Z,12.12
2019-03-29T00:32:06.826Z,12.13
2019-03-29T00:34:38.632Z,12.13
2019-03-29T00:37:10.401Z,12.13
2019-03-29T00:39:42.145Z,12.14
2019-03-29T00:42:13.897Z,12.15
2019-03-29T00:44:45.690Z,12.15
2019-03-29T00:47:17.568Z,12.15
2019-03-29T00:49:49.299Z,12.16
2019-03-29T00:52:21.107Z,12.17
2019-03-29T00:54:52.828Z,12.16
2019-03-29T00:57:24.495Z,12.18
2019-03-29T00:59:56.304Z,12.17
2019-03-29T01:02:28.017Z,12.18
2019-03-29T01:04:59.828Z,12.17
2019-03-29T01:07:31.531Z,12.18
2019-03-29T01:10:04.480Z,12.18
2019-03-29T01:12:36.279Z,12.19
2019-03-29T01:15:09.556Z,12.18
2019-03-29T01:17:41.325Z,12.18
2019-03-29T01:20:13.164Z,12.17
2019-03-29T01:22:44.929Z,12.16
2019-03-29T01:25:16.753Z,12.16
2019-03-29T01:27:48.584Z,12.16
2019-03-29T01:30:20.566Z,12.14
2019-03-29T01:32:52.286Z,12.15
2019-03-29T01:35:24.092Z,12.15
2019-03-29T01:37:55.794Z,12.13
2019-03-29T01:40:27.505Z,12.11
2019-03-29T01:42:59.377Z,12.08
2019-03-29T01:45:31.078Z,12.07
2019-03-29T01:48:02.728Z,12.05
2019-03-29T01:50:35.129Z,12.05
2019-03-29T01:53:07.174Z,12.06
2019-03-29T01:55:38.888Z,12.04
2019-03-29T01:58:10.625Z,12.01
2019-03-29T02:00:42.405Z,11.99
2019-03-29T02:03:14.151Z,11.96
2019-03-29T02:05:45.928Z,11.92
2019-03-29T02:08:17.701Z,11.92
2019-03-29T02:10:49.842Z,11.89
2019-03-29T02:13:21.589Z,11.86
2019-03-29T02:15:53.334Z,11.82
2019-03-29T02:18:25.011Z,11.74
2019-03-29T02:20:57.049Z,11.67
2019-03-29T02:23:28.702Z,11.62
2019-03-29T02:26:00.403Z,11.61
2019-03-29T02:28:32.174Z,11.57
2019-03-29T02:31:03.935Z,11.49
2019-03-29T02:33:35.650Z,11.42
2019-03-29T02:36:07.367Z,11.37
2019-03-29T02:38:54.152Z,11.34
2019-03-29T02:41:12.633Z,11.32
2019-03-29T02:43:44.455Z,11.32
2019-03-29T02:46:16.212Z,11.30
2019-03-29T02:48:48.005Z,11.28
2019-03-29T02:51:19.796Z,11.28
2019-03-29T02:53:51.534Z,11.28
2019-03-29T02:56:23.336Z,11.27
2019-03-29T02:58:55.098Z,11.28
2019-03-29T03:01:26.829Z,11.28
2019-03-29T03:03:58.543Z,11.30
2019-03-29T03:06:30.270Z,11.33
2019-03-29T03:09:13.165Z,11.36
2019-03-29T03:11:35.593Z,11.37
2019-03-29T03:14:07.502Z,11.40
2019-03-29T03:16:39.247Z,11.42
2019-03-29T03:19:10.999Z,11.44
2019-03-29T03:21:42.945Z,11.46
2019-03-29T03:24:14.732Z,11.47
2019-03-29T03:26:46.467Z,11.50
2019-03-29T03:29:18.432Z,11.53
2019-03-29T03:31:50.289Z,11.55
2019-03-29T03:34:22.005Z,11.56
2019-03-29T03:36:53.760Z,11.59
2019-03-29T03:39:31.962Z,11.59
2019-03-29T03:41:59.092Z,11.60
2019-03-29T03:44:30.901Z,11.62
2019-03-29T03:47:02.647Z,11.62
2019-03-29T03:49:34.503Z,11.63
2019-03-29T03:52:06.248Z,11.64
2019-03-29T03:54:38.637Z,11.64
2019-03-29T03:57:11.727Z,11.65
2019-03-29T03:59:44.719Z,11.66
2019-03-29T04:02:16.566Z,11.66
2019-03-29T04:04:48.373Z,11.66
2019-03-29T04:07:20.100Z,11.65
2019-03-29T04:09:51.822Z,11.66
2019-03-29T04:12:23.482Z,11.66
2019-03-29T04:14:55.306Z,11.68
2019-03-29T04:17:27.174Z,11.67
2019-03-29T04:19:59.047Z,11.67
2019-03-29T04:22:30.712Z,11.67
2019-03-29T04:25:02.579Z,11.68
2019-03-29T04:27:34.352Z,11.68
2019-03-29T04:30:06.404Z,11.69
2019-03-29T04:32:38.172Z,11.70
2019-03-29T04:35:10.005Z,11.69
2019-03-29T04:37:41.687Z,11.71
2019-03-29T04:40:13.408Z,11.70
2019-03-29T04:42:45.262Z,11.70
2019-03-29T04:45:18.802Z,11.71
2019-03-29T04:47:50.600Z,11.70
2019-03-29T04:50:22.371Z,11.71
2019-03-29T04:52:54.163Z,11.67
2019-03-29T04:55:26.071Z,11.65
2019-03-29T04:57:57.767Z,11.66
2019-03-29T05:00:29.526Z,11.65
2019-03-29T05:03:01.298Z,11.66
2019-03-29T05:05:33.076Z,11.66
2019-03-29T05:08:04.815Z,11.67
2019-03-29T05:10:36.582Z,11.67
2019-03-29T05:13:08.335Z,11.68
2019-03-29T05:15:40.100Z,11.68
2019-03-29T05:18:11.806Z,11.67
2019-03-29T05:20:43.603Z,11.69
2019-03-29T05:23:15.378Z,11.70
2019-03-29T05:25:47.101Z,11.69
2019-03-29T05:28:18.816Z,11.69
2019-03-29T05:30:50.558Z,11.71
2019-03-29T05:33:22.361Z,11.72
2019-03-29T05:35:54.129Z,11.71
2019-03-29T05:38:25.854Z,11.72
2019-03-29T05:40:57.628Z,11.73
2019-03-29T05:43:29.475Z,11.74
2019-03-29T05:46:02.272Z,11.75
2019-03-29T05:48:34.045Z,11.75
2019-03-29T05:51:05.939Z,11.77
2019-03-29T05:53:37.806Z,11.77
2019-03-29T05:56:09.546Z,11.78
2019-03-29T05:58:41.394Z,11.78
2019-03-29T06:01:13.073Z,11.79
2019-03-29T06:03:44.793Z,11.79
2019-03-29T06:06:16.486Z,11.81
2019-03-29T06:08:48.261Z,11.81
2019-03-29T06:11:19.972Z,11.83
2019-03-29T06:13:51.650Z,11.84
2019-03-29T06:16:23.419Z,11.85
2019-03-29T06:18:55.142Z,11.88
2019-03-29T06:21:27.015Z,11.88
2019-03-29T06:23:58.763Z,11.89
2019-03-29T06:26:30.481Z,11.90
2019-03-29T06:29:02.245Z,11.92
2019-03-29T06:31:33.992Z,11.93
2019-03-29T06:34:05.724Z,11.94
2019-03-29T06:36:37.576Z,11.95
2019-03-29T06:39:09.366Z,11.96
2019-03-29T06:41:41.111Z,11.97
2019-03-29T06:44:12.856Z,11.98
2019-03-29T06:46:44.580Z,11.99
2019-03-29T06:49:16.299Z,11.99
2019-03-29T06:51:48.187Z,12.02
2019-03-29T06:54:20.009Z,12.02
2019-03-29T06:56:51.879Z,12.02
2019-03-29T06:59:23.571Z,12.05
2019-03-29T07:01:55.449Z,12.06
2019-03-29T07:04:27.218Z,12.07
2019-03-29T07:06:59.092Z,12.09
2019-03-29T07:09:30.835Z,12.10
2019-03-29T07:12:02.586Z,12.12
2019-03-29T07:14:34.337Z,12.15
2019-03-29T07:17:06.061Z,12.16
2019-03-29T07:19:38.093Z,12.17
2019-03-29T07:22:09.857Z,12.20
2019-03-29T07:24:41.668Z,12.22
2019-03-29T07:27:13.528Z,12.26
2019-03-29T07:29:45.220Z,12.28
2019-03-29T07:32:16.985Z,12.29
2019-03-29T07:34:49.342Z,12.32
2019-03-29T07:37:21.291Z,12.35
2019-03-29T07:39:53.963Z,12.37
2019-03-29T07:42:25.781Z,12.40
2019-03-29T07:44:57.521Z,12.42
2019-03-29T07:47:29.253Z,12.45
2019-03-29T07:50:01.116Z,12.47
2019-03-29T07:52:32.824Z,12.50
2019-03-29T07:55:04.652Z,12.54
2019-03-29T07:57:36.361Z,12.55
2019-03-29T08:00:09.169Z,12.57
2019-03-29T08:02:40.984Z,12.60
2019-03-29T08:05:12.691Z,12.63
2019-03-29T08:07:44.473Z,12.64
2019-03-29T08:10:24.894Z,12.66
2019-03-29T08:12:49.872Z,12.69
2019-03-29T08:15:21.636Z,12.71
2019-03-29T08:17:53.680Z,12.73
2019-03-29T08:20:39.284Z,12.77
2019-03-29T08:22:58.981Z,12.78
2019-03-29T08:25:30.838Z,12.81
2019-03-29T08:28:02.632Z,12.84
2019-03-29T08:30:34.394Z,12.87
2019-03-29T08:33:06.131Z,12.90
2019-03-29T08:35:37.836Z,12.92
2019-03-29T08:38:09.630Z,12.94
2019-03-29T08:40:41.340Z,12.97
2019-03-29T08:43:13.103Z,13.01
2019-03-29T08:45:44.945Z,13.03
2019-03-29T08:48:16.707Z,13.05
2019-03-29T08:50:48.456Z,13.08
2019-03-29T08:53:20.271Z,13.11
2019-03-29T08:55:52.035Z,13.12
2019-03-29T08:58:23.789Z,13.16
2019-03-29T09:00:55.548Z,13.20
2019-03-29T09:03:27.244Z,13.23
2019-03-29T09:05:59.103Z,13.25
2019-03-29T09:08:30.798Z,13.28
2019-03-29T09:11:02.621Z,13.30
2019-03-29T09:13:34.312Z,13.32
2019-03-29T09:16:06.121Z,13.34
2019-03-29T09:18:37.859Z,13.37
2019-03-29T09:21:09.655Z,13.39
2019-03-29T09:23:41.430Z,13.43
2019-03-29T09:26:13.255Z,13.47
2019-03-29T09:28:45.047Z,13.50
2019-03-29T09:31:16.806Z,13.54
2019-03-29T09:33:49.610Z,13.58
2019-03-29T09:36:21.473Z,13.63
2019-03-29T09:38:53.255Z,13.67
2019-03-29T09:41:25.019Z,13.71
2019-03-29T09:43:56.726Z,13.75
2019-03-29T09:46:28.542Z,13.79
2019-03-29T09:49:00.256Z,13.79
2019-03-29T09:51:32.073Z,13.83
2019-03-29T09:54:03.803Z,13.86
2019-03-29T09:56:38.986Z,13.90
2019-03-29T09:59:09.062Z,13.93
2019-03-29T10:01:40.802Z,13.98
2019-03-29T10:04:12.717Z,14.02
2019-03-29T10:06:44.451Z,14.06
2019-03-29T10:09:16.210Z,14.10
2019-03-29T10:11:47.962Z,14.14
2019-03-29T10:14:19.743Z,14.21
2019-03-29T10:16:51.491Z,14.25
2019-03-29T10:19:23.358Z,14.32
2019-03-29T10:21:55.146Z,14.36
2019-03-29T10:24:26.991Z,14.39
2019-03-29T10:26:58.703Z,14.46
2019-03-29T10:29:30.434Z,14.52
2019-03-29T10:32:05.487Z,14.58
2019-03-29T10:34:37.492Z,14.64
2019-03-29T10:37:09.104Z,14.73
2019-03-29T10:39:40.902Z,14.80
2019-03-29T10:42:12.667Z,14.89
2019-03-29T10:44:44.400Z,14.98
2019-03-29T10:47:16.211Z,15.05
2019-03-29T10:49:47.961Z,15.14
2019-03-29T10:52:19.703Z,15.21
2019-03-29T10:54:51.534Z,15.26
2019-03-29T10:57:23.324Z,15.31
2019-03-29T10:59:55.118Z,15.32
2019-03-29T11:02:26.868Z,15.34
2019-03-29T11:04:58.719Z,15.35
2019-03-29T11:07:30.437Z,15.36
2019-03-29T11:10:02.415Z,15.37
2019-03-29T11:12:34.148Z,15.35
2019-03-29T11:15:06.727Z,15.31
2019-03-29T11:17:38.727Z,15.27
2019-03-29T11:20:10.485Z,15.24
2019-03-29T11:22:42.214Z,15.22
2019-03-29T11:25:13.912Z,15.24
2019-03-29T11:27:45.659Z,15.27
2019-03-29T11:30:17.576Z,15.30
2019-03-29T11:32:49.418Z,15.29
2019-03-29T11:35:21.172Z,15.28
2019-03-29T11:37:52.925Z,15.28
2019-03-29T11:40:24.707Z,15.30
2019-03-29T11:42:56.545Z,15.35
2019-03-29T11:45:28.425Z,15.41
2019-03-29T11:48:08.544Z,15.46
2019-03-29T11:50:33.607Z,15.47
2019-03-29T11:53:05.351Z,15.44
2019-03-29T11:55:37.080Z,15.42
2019-03-29T11:58:08.832Z,15.39
2019-03-29T12:00:41.405Z,15.37
2019-03-29T12:03:13.330Z,15.34
2019-03-29T12:05:45.040Z,15.32
2019-03-29T12:08:16.860Z,15.33
2019-03-29T12:10:48.545Z,15.32
2019-03-29T12:13:20.358Z,15.36
2019-03-29T12:15:52.207Z,15.42
2019-03-29T12:18:24.020Z,15.49
2019-03-29T12:20:55.771Z,15.57
2019-03-29T12:23:27.644Z,15.67
2019-03-29T12:25:59.458Z,15.75
2019-03-29T12:28:31.163Z,15.86
2019-03-29T12:31:02.912Z,15.98
2019-03-29T12:33:34.705Z,16.13
2019-03-29T12:36:06.471Z,16.26
2019-03-29T12:38:38.209Z,16.41
2019-03-29T12:41:09.940Z,16.57
2019-03-29T12:43:54.655Z,16.68
2019-03-29T12:46:15.030Z,16.75
2019-03-29T12:48:50.074Z,16.89
2019-03-29T12:51:20.155Z,17.32
2019-03-29T12:53:51.895Z,17.91
2019-03-29T12:56:23.687Z,18.50
2019-03-29T12:58:55.489Z,18.90
2019-03-29T13:01:38.520Z,19.42
2019-03-29T13:04:00.740Z,20.08
2019-03-29T13:06:32.447Z,20.77
2019-03-29T13:09:04.511Z,21.48
2019-03-29T13:11:36.230Z,22.03
2019-03-29T13:14:10.642Z,22.42
2019-03-29T13:16:42.488Z,22.62
2019-03-29T13:19:14.399Z,22.71
2019-03-29T13:21:46.351Z,22.87
2019-03-29T13:24:18.138Z,23.26
2019-03-29T13:26:49.978Z,23.77
2019-03-29T13:29:21.754Z,24.37
2019-03-29T13:31:53.579Z,24.99
2019-03-29T13:34:25.310Z,25.46
2019-03-29T13:36:57.004Z,25.84
2019-03-29T13:39:28.872Z,26.30
2019-03-29T13:42:00.826Z,26.74
2019-03-29T13:44:32.593Z,27.13
2019-03-29T13:47:04.299Z,27.26
2019-03-29T13:49:36.084Z,27.40
2019-03-29T13:52:07.862Z,27.49
2019-03-29T13:54:39.583Z,27.46
2019-03-29T13:57:11.379Z,27.68
2019-03-29T13:59:43.102Z,28.04
2019-03-29T14:02:14.941Z,28.47
2019-03-29T14:04:46.730Z,28.96
2019-03-29T14:07:18.521Z,29.48
2019-03-29T14:09:50.302Z,29.96
2019-03-29T14:12:22.070Z,30.02
2019-03-29T14:14:53.763Z,29.80
2019-03-29T14:17:25.650Z,29.54
2019-03-29T14:19:57.391Z,29.56
2019-03-29T14:22:29.181Z,29.65
2019-03-29T14:25:00.996Z,29.69
2019-03-29T14:27:32.954Z,29.72
2019-03-29T14:30:05.319Z,29.94
2019-03-29T14:32:37.306Z,29.94
2019-03-29T14:35:09.345Z,29.97
2019-03-29T14:37:41.165Z,29.97
2019-03-29T14:40:12.946Z,29.83
2019-03-29T14:42:44.801Z,29.51
2019-03-29T14:45:16.726Z,29.18
2019-03-29T14:47:48.578Z,28.79
2019-03-29T14:50:20.392Z,28.57
2019-03-29T14:52:52.097Z,28.46
2019-03-29T14:55:23.837Z,28.43
2019-03-29T14:57:55.656Z,28.41
2019-03-29T15:00:55.758Z,28.39
2019-03-29T15:03:27.625Z,28.40
2019-03-29T15:06:01.714Z,28.43
2019-03-29T15:08:32.917Z,28.43
2019-03-29T15:11:04.744Z,28.40
2019-03-29T15:13:36.621Z,28.32
2019-03-29T15:16:08.500Z,28.21
2019-03-29T15:18:40.274Z,28.13
2019-03-29T15:21:12.055Z,28.06
2019-03-29T15:23:43.817Z,27.97
2019-03-29T15:26:15.559Z,27.88
2019-03-29T15:28:47.215Z,27.77
2019-03-29T15:31:19.108Z,27.62
2019-03-29T15:33:50.995Z,27.50
2019-03-29T15:36:22.812Z,27.34
2019-03-29T15:38:55.647Z,27.20
2019-03-29T15:41:27.512Z,27.07
2019-03-29T15:43:59.428Z,26.96
2019-03-29T15:46:31.183Z,26.80
2019-03-29T15:49:02.926Z,26.66
2019-03-29T15:51:34.818Z,26.53
2019-03-29T15:54:06.698Z,26.34
2019-03-29T15:56:38.547Z,26.19
2019-03-29T15:59:10.394Z,26.08
2019-03-29T16:01:42.273Z,25.96
2019-03-29T16:04:14.178Z,25.81
2019-03-29T16:06:45.962Z,25.71
2019-03-29T16:09:17.661Z,25.58
2019-03-29T16:11:49.607Z,25.48
2019-03-29T16:14:21.307Z,25.36
2019-03-29T16:16:53.236Z,25.20
2019-03-29T16:19:25.128Z,25.05
2019-03-29T16:21:57.000Z,24.90
2019-03-29T16:24:29.411Z,24.72
2019-03-29T16:27:02.248Z,24.52
2019-03-29T16:29:34.143Z,24.36
2019-03-29T16:32:06.738Z,24.23
2019-03-29T16:34:38.511Z,24.05
2019-03-29T16:37:10.328Z,23.85
2019-03-29T16:39:42.045Z,23.64
2019-03-29T16:42:13.865Z,23.43
2019-03-29T16:44:45.604Z,23.21
2019-03-29T16:47:17.356Z,22.99
2019-03-29T16:49:49.083Z,22.78
2019-03-29T16:52:20.917Z,22.58
2019-03-29T16:54:52.730Z,22.40
2019-03-29T16:57:24.673Z,22.23
2019-03-29T16:59:56.508Z,22.04
2019-03-29T17:02:28.306Z,21.83
2019-03-29T17:05:00.351Z,21.65
2019-03-29T17:07:32.168Z,21.43
2019-03-29T17:10:04.062Z,21.23
2019-03-29T17:12:36.086Z,20.99
2019-03-29T17:15:08.144Z,20.77
2019-03-29T17:17:39.928Z,20.59
2019-03-29T17:20:11.732Z,20.39
2019-03-29T17:22:43.780Z,20.21
2019-03-29T17:25:16.614Z,20.02
2019-03-29T17:27:51.913Z,19.83
2019-03-29T17:30:36.964Z,19.67
2019-03-29T17:33:08.728Z,19.49
2019-03-29T17:35:40.688Z,19.28
2019-03-29T17:38:12.394Z,19.08
2019-03-29T17:40:44.178Z,18.92
2019-03-29T17:43:16.199Z,18.76
2019-03-29T17:45:48.003Z,18.63
2019-03-29T17:48:19.946Z,18.50
2019-03-29T17:50:51.757Z,18.38
2019-03-29T17:53:23.557Z,18.23
2019-03-29T17:55:55.326Z,18.11
2019-03-29T17:58:27.134Z,17.98
2019-03-29T18:00:58.962Z,17.87
2019-03-29T18:03:30.673Z,17.75
2019-03-29T18:06:02.435Z,17.64
2019-03-29T18:08:34.245Z,17.54
2019-03-29T18:11:06.074Z,17.43
2019-03-29T18:13:37.785Z,17.32
2019-03-29T18:16:09.618Z,17.21
2019-03-29T18:18:41.365Z,17.11
2019-03-29T18:21:13.211Z,17.00
2019-03-29T18:23:45.082Z,16.92
2019-03-29T18:26:16.794Z,16.81
2019-03-29T18:28:48.568Z,16.71
2019-03-29T18:31:20.313Z,16.62
2019-03-29T18:33:52.074Z,16.52
2019-03-29T18:36:23.816Z,16.44
2019-03-29T18:38:55.585Z,16.35
2019-03-29T18:41:27.357Z,16.28
2019-03-29T18:43:59.142Z,16.19
2019-03-29T18:46:43.990Z,16.13
2019-03-29T18:49:04.483Z,16.05
2019-03-29T18:51:36.286Z,15.98
2019-03-29T18:54:08.184Z,15.92
2019-03-29T18:56:40.017Z,15.85
2019-03-29T18:59:11.873Z,15.76
2019-03-29T19:01:43.712Z,15.70
2019-03-29T19:04:15.665Z,15.65
2019-03-29T19:06:47.525Z,15.58
2019-03-29T19:09:19.294Z,15.52
2019-03-29T19:11:51.043Z,15.45
2019-03-29T19:14:23.719Z,15.39
2019-03-29T19:16:59.443Z,15.35
2019-03-29T19:19:29.006Z,15.30
2019-03-29T19:22:01.794Z,15.24
2019-03-29T19:24:33.577Z,15.18
2019-03-29T19:27:05.286Z,15.14
2019-03-29T19:29:37.120Z,15.07
2019-03-29T19:32:08.963Z,15.02
2019-03-29T19:34:40.672Z,14.97
2019-03-29T19:37:12.434Z,14.92
2019-03-29T19:39:44.206Z,14.87
2019-03-29T19:42:16.922Z,14.81
2019-03-29T19:44:48.797Z,14.75
2019-03-29T19:47:20.555Z,14.71
2019-03-29T19:49:55.343Z,14.65
2019-03-29T19:52:26.918Z,14.61
2019-03-29T19:55:01.429Z,14.54
2019-03-29T19:57:33.309Z,14.49
2019-03-29T20:00:06.529Z,14.44
2019-03-29T20:02:40.702Z,14.38
2019-03-29T20:05:35.120Z,14.33
2019-03-29T20:08:06.954Z,14.28
2019-03-29T20:10:38.720Z,14.21
2019-03-29T20:13:10.792Z,14.16
2019-03-29T20:15:43.092Z,14.10
2019-03-29T20:18:15.300Z,14.06
2019-03-29T20:20:47.237Z,13.99
2019-03-29T20:23:19.091Z,13.94
2019-03-29T20:25:51.087Z,13.88
2019-03-29T20:28:22.937Z,13.82
2019-03-29T20:30:54.826Z,13.76
2019-03-29T20:33:27.026Z,13.72
2019-03-29T20:35:59.054Z,13.67
2019-03-29T20:38:31.150Z,13.62
2019-03-29T20:41:03.228Z,13.57
2019-03-29T20:43:35.117Z,13.52
2019-03-29T20:46:07.124Z,13.48
2019-03-29T20:48:39.081Z,13.43
2019-03-29T20:51:11.139Z,13.38
2019-03-29T20:53:43.905Z,13.34
2019-03-29T20:56:17.509Z,13.29
2019-03-29T20:58:52.067Z,13.24
2019-03-29T21:01:24.112Z,13.20
2019-03-29T21:03:56.926Z,13.14
2019-03-29T21:06:30.314Z,13.09
2019-03-29T21:09:07.555Z,13.05
2019-03-29T21:11:39.546Z,13.01
2019-03-29T21:14:12.352Z,12.95
2019-03-29T21:16:45.459Z,12.92
2019-03-29T21:19:17.244Z,12.88
2019-03-29T21:21:49.058Z,12.84
2019-03-29T21:24:22.246Z,12.81
2019-03-29T21:26:54.362Z,12.77
2019-03-29T21:29:26.542Z,12.74
2019-03-29T21:31:58.717Z,12.70
2019-03-29T21:34:30.724Z,12.66
2019-03-29T21:37:02.712Z,12.63
2019-03-29T21:39:34.843Z,12.59
2019-03-29T21:42:06.899Z,12.56
2019-03-29T21:44:38.987Z,12.52
2019-03-29T21:47:11.002Z,12.48
2019-03-29T21:49:43.402Z,12.45
2019-03-29T21:52:15.793Z,12.42
2019-03-29T21:54:48.007Z,12.38
2019-03-29T21:57:20.316Z,12.35
2019-03-29T21:59:52.460Z,12.31
2019-03-29T22:02:24.676Z,12.27
2019-03-29T22:04:56.768Z,12.22
2019-03-29T22:07:28.789Z,12.18
2019-03-29T22:10:01.286Z,12.16
2019-03-29T22:12:33.439Z,12.12
2019-03-29T22:15:06.231Z,12.09
2019-03-29T22:17:38.375Z,12.06
2019-03-29T22:20:10.934Z,12.02
2019-03-29T22:22:43.450Z,11.99
2019-03-29T22:25:15.451Z,11.96
2019-03-29T22:27:47.526Z,11.94
2019-03-29T22:30:21.599Z,11.90
2019-03-29T22:32:53.799Z,11.87
2019-03-29T22:35:25.890Z,11.84
2019-03-29T22:37:57.653Z,11.81
2019-03-29T22:40:29.423Z,11.77
2019-03-29T22:43:01.275Z,11.74
2019-03-29T22:45:33.362Z,11.72
2019-03-29T22:48:05.172Z,11.69
2019-03-29T22:50:37.079Z,11.66
2019-03-29T22:53:08.800Z,11.64
2019-03-29T22:55:40.601Z,11.61
2019-03-29T22:58:12.392Z,11.58
2019-03-29T23:00:46.765Z,11.55
2019-03-29T23:03:19.144Z,11.52
2019-03-29T23:05:52.025Z,11.49
2019-03-29T23:08:23.816Z,11.45
2019-03-29T23:10:55.684Z,11.43
2019-03-29T23:13:29.026Z,11.40
2019-03-29T23:16:00.775Z,11.37
2019-03-29T23:18:36.119Z,11.35
2019-03-29T23:21:07.865Z,11.30
2019-03-29T23:23:39.613Z,11.26
2019-03-29T23:26:11.437Z,11.24
2019-03-29T23:28:43.100Z,11.19
2019-03-29T23:31:15.057Z,11.17
2019-03-29T23:33:47.825Z,11.13
2019-03-29T23:36:19.611Z,11.11
2019-03-29T23:38:51.319Z,11.08
2019-03-29T23:41:23.071Z,11.05
2019-03-29T23:43:54.807Z,11.02
2019-03-29T23:46:26.552Z,10.99
2019-03-29T23:48:58.312Z,10.97
2019-03-29T23:51:31.195Z,10.94
2019-03-29T23:54:04.097Z,10.92
2019-03-29T23:56:35.851Z,10.89
2019-03-29T23:59:08.549Z,10.86
